createdAt,value
2018-09-13T00:00:36.732Z,8.27
2018-09-13T00:03:05.371Z,8.43
2018-09-13T00:05:33.905Z,9.87
2018-09-13T00:08:02.500Z,8.97
2018-09-13T00:10:31.043Z,8.80
2018-09-13T00:12:59.627Z,8.10
2018-09-13T00:15:28.144Z,8.83
2018-09-13T00:17:56.736Z,8.17
2018-09-13T00:20:25.284Z,8.53
2018-09-13T00:22:53.864Z,8.77
2018-09-13T00:25:22.418Z,8.20
2018-09-13T00:27:50.971Z,8.30
2018-09-13T00:30:19.510Z,7.90
2018-09-13T00:32:48.100Z,8.23
2018-09-13T00:35:16.684Z,8.23
2018-09-13T00:37:45.262Z,8.70
2018-09-13T00:40:13.813Z,8.80
2018-09-13T00:42:42.424Z,7.63
2018-09-13T00:45:10.976Z,8.63
2018-09-13T00:47:43.961Z,8.13
2018-09-13T00:50:13.536Z,7.87
2018-09-13T00:52:42.120Z,7.73
2018-09-13T00:55:10.810Z,8.70
2018-09-13T00:57:39.405Z,8.50
2018-09-13T01:00:08.363Z,8.30
2018-09-13T01:02:37.407Z,8.20
2018-09-13T01:05:06.262Z,8.10
2018-09-13T01:07:34.971Z,8.90
2018-09-13T01:10:03.572Z,8.90
2018-09-13T01:12:32.188Z,9.30
2018-09-13T01:15:00.719Z,9.43
2018-09-13T01:17:29.283Z,8.90
2018-09-13T01:19:57.824Z,8.83
2018-09-13T01:22:26.405Z,8.37
2018-09-13T01:24:55.443Z,8.10
2018-09-13T01:27:25.084Z,8.93
2018-09-13T01:29:53.616Z,8.90
2018-09-13T01:32:22.278Z,9.10
2018-09-13T01:34:50.902Z,9.87
2018-09-13T01:37:19.485Z,8.93
2018-09-13T01:39:48.062Z,9.83
2018-09-13T01:42:16.679Z,9.27
2018-09-13T01:44:45.192Z,10.67
2018-09-13T01:47:13.742Z,9.80
2018-09-13T01:49:42.359Z,10.90
2018-09-13T01:52:10.953Z,9.37
2018-09-13T01:54:39.571Z,9.27
2018-09-13T01:57:08.961Z,9.07
2018-09-13T01:59:37.585Z,9.40
2018-09-13T02:02:06.180Z,8.63
2018-09-13T02:04:34.755Z,8.97
2018-09-13T02:07:03.291Z,8.53
2018-09-13T02:09:31.880Z,8.80
2018-09-13T02:12:00.431Z,9.13
2018-09-13T02:14:28.987Z,9.43
2018-09-13T02:16:57.523Z,10.57
2018-09-13T02:19:26.083Z,8.47
2018-09-13T02:21:54.617Z,8.63
2018-09-13T02:24:23.200Z,8.80
2018-09-13T02:26:51.715Z,9.53
2018-09-13T02:29:20.276Z,9.10
2018-09-13T02:31:48.799Z,9.00
2018-09-13T02:34:17.350Z,9.23
2018-09-13T02:36:45.880Z,9.23
2018-09-13T02:39:14.455Z,9.20
2018-09-13T02:41:43.100Z,9.07
2018-09-13T02:44:12.045Z,9.10
2018-09-13T02:46:40.650Z,10.97
2018-09-13T02:49:09.333Z,9.03
2018-09-13T02:51:37.891Z,9.67
2018-09-13T02:54:06.476Z,9.63
2018-09-13T02:56:35.044Z,8.90
2018-09-13T02:59:03.669Z,9.30
2018-09-13T03:01:32.217Z,10.60
2018-09-13T03:04:00.812Z,8.83
2018-09-13T03:06:29.335Z,8.67
2018-09-13T03:08:57.892Z,9.20
2018-09-13T03:11:26.425Z,10.27
2018-09-13T03:13:54.999Z,9.03
2018-09-13T03:16:23.558Z,9.67
2018-09-13T03:18:52.124Z,11.20
2018-09-13T03:21:20.655Z,10.67
2018-09-13T03:23:49.233Z,10.93
2018-09-13T03:26:17.949Z,10.97
2018-09-13T03:28:46.602Z,11.83
2018-09-13T03:31:15.116Z,10.73
2018-09-13T03:33:43.736Z,10.93
2018-09-13T03:36:12.297Z,11.20
2018-09-13T03:38:40.920Z,10.37
2018-09-13T03:41:09.524Z,11.13
2018-09-13T03:43:38.533Z,9.77
2018-09-13T03:46:07.081Z,10.20
2018-09-13T03:48:35.693Z,10.20
2018-09-13T03:51:04.433Z,10.90
2018-09-13T03:53:32.987Z,11.07
2018-09-13T03:56:01.541Z,11.27
2018-09-13T03:58:30.165Z,11.13
2018-09-13T04:00:58.743Z,10.47
2018-09-13T04:03:27.443Z,10.40
2018-09-13T04:05:56.019Z,11.43
2018-09-13T04:08:24.604Z,10.27
2018-09-13T04:10:53.191Z,10.60
2018-09-13T04:13:21.772Z,10.10
2018-09-13T04:15:50.344Z,10.20
2018-09-13T04:18:18.872Z,9.70
2018-09-13T04:20:47.444Z,9.40
2018-09-13T04:23:16.007Z,10.50
2018-09-13T04:25:44.597Z,9.93
2018-09-13T04:28:13.152Z,10.20
2018-09-13T04:30:41.751Z,9.47
2018-09-13T04:33:10.304Z,10.17
2018-09-13T04:35:39.402Z,9.50
2018-09-13T04:38:08.080Z,10.53
2018-09-13T04:40:36.725Z,10.13
2018-09-13T04:43:05.389Z,10.23
2018-09-13T04:45:33.930Z,9.50
2018-09-13T04:48:02.457Z,10.33
2018-09-13T04:50:31.015Z,9.57
2018-09-13T04:52:59.547Z,9.67
2018-09-13T04:55:28.112Z,9.30
2018-09-13T04:57:56.650Z,9.83
2018-09-13T05:00:25.209Z,9.13
2018-09-13T05:02:53.758Z,9.27
2018-09-13T05:05:22.313Z,8.97
2018-09-13T05:07:50.848Z,8.73
2018-09-13T05:10:19.436Z,9.73
2018-09-13T05:12:48.279Z,9.47
2018-09-13T05:15:16.835Z,9.07
2018-09-13T05:17:45.371Z,8.47
2018-09-13T05:20:14.258Z,8.50
2018-09-13T05:22:43.814Z,8.90
2018-09-13T05:25:12.456Z,8.53
2018-09-13T05:27:41.024Z,8.47
2018-09-13T05:30:09.649Z,9.00
2018-09-13T05:32:38.279Z,8.70
2018-09-13T05:35:08.066Z,8.50
2018-09-13T05:37:36.822Z,8.67
2018-09-13T05:40:05.547Z,8.77
2018-09-13T05:42:34.111Z,8.60
2018-09-13T05:45:02.754Z,9.10
2018-09-13T05:47:31.271Z,8.40
2018-09-13T05:49:59.836Z,9.43
2018-09-13T05:52:28.347Z,8.43
2018-09-13T05:54:56.942Z,8.60
2018-09-13T05:57:25.479Z,20.10
2018-09-13T05:59:54.036Z,21.93
2018-09-13T06:02:22.596Z,18.93
2018-09-13T06:04:51.189Z,13.10
2018-09-13T06:07:19.742Z,8.83
2018-09-13T06:09:48.247Z,10.23
2018-09-13T06:12:16.796Z,9.20
2018-09-13T06:14:45.296Z,8.63
2018-09-13T06:17:13.914Z,9.10
2018-09-13T06:19:42.461Z,9.40
2018-09-13T06:22:10.999Z,9.53
2018-09-13T06:24:39.560Z,9.03
2018-09-13T06:27:08.156Z,9.57
2018-09-13T06:29:37.005Z,10.47
2018-09-13T06:32:05.603Z,10.23
2018-09-13T06:34:34.123Z,10.67
2018-09-13T06:37:02.788Z,10.60
2018-09-13T06:39:31.296Z,9.40
2018-09-13T06:41:59.847Z,10.37
2018-09-13T06:44:28.360Z,9.87
2018-09-13T06:46:56.894Z,10.17
2018-09-13T06:49:25.391Z,12.73
2018-09-13T06:51:53.956Z,10.13
2018-09-13T06:54:22.493Z,10.37
2018-09-13T06:56:51.073Z,10.63
2018-09-13T06:59:19.594Z,10.80
2018-09-13T07:01:48.408Z,11.73
2018-09-13T07:04:16.927Z,11.47
2018-09-13T07:06:45.499Z,10.73
2018-09-13T07:09:15.240Z,10.20
2018-09-13T07:11:44.668Z,10.67
2018-09-13T07:14:13.206Z,11.80
2018-09-13T07:16:41.783Z,10.03
2018-09-13T07:19:10.365Z,10.00
2018-09-13T07:21:38.920Z,9.77
2018-09-13T07:24:07.484Z,9.70
2018-09-13T07:26:36.028Z,9.87
2018-09-13T07:29:04.588Z,9.70
2018-09-13T07:31:33.168Z,9.10
2018-09-13T07:34:01.700Z,10.93
2018-09-13T07:36:30.263Z,9.33
2018-09-13T07:38:59.532Z,9.77
2018-09-13T07:41:28.102Z,9.13
2018-09-13T07:43:56.616Z,10.37
2018-09-13T07:46:25.184Z,8.97
2018-09-13T07:48:53.715Z,9.57
2018-09-13T07:51:22.283Z,9.63
2018-09-13T07:53:50.825Z,9.73
2018-09-13T07:56:19.445Z,13.00
2018-09-13T07:58:48.016Z,12.53
2018-09-13T08:01:18.246Z,11.60
2018-09-13T08:03:46.821Z,10.07
2018-09-13T08:06:15.508Z,12.03
2018-09-13T08:08:44.091Z,9.80
2018-09-13T08:11:12.624Z,10.07
2018-09-13T08:13:41.175Z,9.27
2018-09-13T08:16:09.705Z,12.53
2018-09-13T08:18:38.273Z,11.47
2018-09-13T08:21:06.828Z,9.40
2018-09-13T08:23:35.376Z,11.03
2018-09-13T08:26:03.930Z,12.27
2018-09-13T08:28:32.487Z,8.97
2018-09-13T08:31:02.052Z,9.73
2018-09-13T08:33:38.120Z,10.27
2018-09-13T08:36:06.932Z,9.27
2018-09-13T08:38:35.599Z,8.60
2018-09-13T08:41:04.966Z,11.73
2018-09-13T08:43:33.483Z,9.83
2018-09-13T08:46:02.005Z,9.10
2018-09-13T08:48:30.585Z,10.00
2018-09-13T08:50:59.088Z,9.28
2018-09-13T08:53:27.821Z,10.38
2018-09-13T08:55:56.321Z,10.48
2018-09-13T08:58:24.920Z,12.00
2018-09-13T09:00:53.443Z,11.90
2018-09-13T09:03:21.986Z,9.95
2018-09-13T09:05:50.494Z,11.12
2018-09-13T09:08:19.050Z,10.48
2018-09-13T09:10:54.628Z,9.88
2018-09-13T09:22:13.225Z,8.13
2018-09-13T09:36:44.227Z,8.10
2018-09-13T09:39:14.335Z,7.40
2018-09-13T09:41:44.214Z,7.50
2018-09-13T09:44:13.604Z,6.67
2018-09-13T09:46:42.068Z,9.58
2018-09-13T09:49:10.758Z,6.83
2018-09-13T09:51:40.241Z,6.75
2018-09-13T09:54:10.165Z,5.85
2018-09-13T09:56:38.654Z,5.85
2018-09-13T09:59:07.160Z,5.78
2018-09-13T10:01:39.962Z,7.15
2018-09-13T10:04:08.520Z,6.20
2018-09-13T10:06:36.986Z,6.25
2018-09-13T10:11:58.184Z,5.92
2018-09-13T10:14:26.669Z,5.70
2018-09-13T10:17:00.490Z,5.53
2018-09-13T10:19:34.336Z,6.08
2018-09-13T10:22:07.994Z,5.85
2018-09-13T10:24:41.824Z,6.28
2018-09-13T10:27:15.682Z,6.97
2018-09-13T10:29:49.494Z,6.15
2018-09-13T10:32:23.070Z,7.10
2018-09-13T10:34:56.753Z,7.92
2018-09-13T10:37:30.398Z,7.60
2018-09-13T10:40:04.132Z,6.45
2018-09-13T10:42:37.870Z,7.80
2018-09-13T10:45:11.676Z,6.75
2018-09-13T10:47:45.430Z,7.20
2018-09-13T10:50:19.968Z,7.50
2018-09-13T10:52:54.642Z,7.90
2018-09-13T10:55:23.268Z,9.03
2018-09-13T10:57:51.775Z,9.70
2018-09-13T11:00:20.361Z,10.00
2018-09-13T11:02:48.870Z,9.70
2018-09-13T11:05:17.476Z,7.55
2018-09-13T11:07:45.975Z,11.40
2018-09-13T11:10:14.487Z,12.55
2018-09-13T11:12:49.927Z,11.15
2018-09-13T11:15:26.578Z,12.47
2018-09-13T11:17:55.073Z,10.30
2018-09-13T11:20:23.626Z,9.35
2018-09-13T11:22:54.432Z,11.93
2018-09-13T11:25:24.183Z,10.25
2018-09-13T11:27:52.810Z,14.28
2018-09-13T11:30:21.331Z,9.78
2018-09-13T11:32:49.887Z,9.30
2018-09-13T11:35:18.415Z,9.65
2018-09-13T11:37:46.951Z,8.78
2018-09-13T11:40:16.029Z,9.03
2018-09-13T11:42:44.850Z,8.10
2018-09-13T11:45:13.466Z,10.20
2018-09-13T11:47:42.409Z,8.15
2018-09-13T11:50:10.995Z,10.63
2018-09-13T11:52:39.478Z,10.95
2018-09-13T11:55:08.027Z,9.18
2018-09-13T11:57:36.589Z,7.80
2018-09-13T12:00:05.206Z,8.58
2018-09-13T12:02:33.681Z,6.83
2018-09-13T12:05:02.461Z,7.17
2018-09-13T12:07:30.946Z,6.58
2018-09-13T12:09:59.456Z,6.70
2018-09-13T12:12:27.973Z,7.65
2018-09-13T12:14:56.502Z,7.40
2018-09-13T12:17:24.989Z,7.15
2018-09-13T12:19:53.485Z,6.65
2018-09-13T12:22:22.039Z,7.55
2018-09-13T12:24:50.530Z,6.40
2018-09-13T12:27:19.038Z,7.50
2018-09-13T12:29:47.549Z,7.62
2018-09-13T12:32:16.095Z,7.00
2018-09-13T12:34:44.613Z,8.80
2018-09-13T12:37:13.126Z,11.03
2018-09-13T12:39:41.637Z,12.85
2018-09-13T12:42:10.142Z,7.50
2018-09-13T12:44:38.634Z,9.35
2018-09-13T12:47:07.203Z,7.90
2018-09-13T12:49:35.758Z,7.05
2018-09-13T12:52:04.300Z,6.00
2018-09-13T12:54:32.825Z,5.10
2018-09-13T12:57:01.426Z,4.97
2018-09-13T12:59:35.882Z,6.03
2018-09-13T13:02:05.677Z,5.37
2018-09-13T13:04:34.197Z,5.95
2018-09-13T13:07:02.877Z,6.42
2018-09-13T13:09:31.413Z,5.30
2018-09-13T13:11:59.958Z,5.67
2018-09-13T13:14:30.201Z,7.58
2018-09-13T13:16:58.739Z,6.67
2018-09-13T13:19:30.189Z,6.47
2018-09-13T13:21:58.644Z,6.20
2018-09-13T13:24:27.209Z,4.83
2018-09-13T13:26:55.706Z,4.15
2018-09-13T13:29:24.195Z,4.97
2018-09-13T13:31:52.727Z,5.42
2018-09-13T13:34:21.221Z,5.03
2018-09-13T13:36:50.041Z,5.47
2018-09-13T13:39:18.995Z,5.12
2018-09-13T13:41:47.530Z,5.25
2018-09-13T13:44:16.002Z,4.90
2018-09-13T13:46:45.756Z,5.12
2018-09-13T13:49:14.362Z,5.62
2018-09-13T13:51:44.097Z,5.25
2018-09-13T13:54:12.629Z,5.53
2018-09-13T13:56:41.142Z,5.97
2018-09-13T13:59:09.797Z,5.60
2018-09-13T14:01:39.148Z,7.00
2018-09-13T14:04:08.739Z,6.70
2018-09-13T14:06:46.277Z,6.40
2018-09-13T14:09:24.652Z,5.53
2018-09-13T14:11:53.166Z,5.92
2018-09-13T14:14:24.007Z,5.75
2018-09-13T14:16:56.978Z,6.33
2018-09-13T14:19:25.673Z,4.78
2018-09-13T14:21:54.663Z,6.97
2018-09-13T14:24:23.336Z,7.00
2018-09-13T14:26:51.862Z,4.65
2018-09-13T14:29:20.617Z,5.97
2018-09-13T14:31:49.542Z,4.42
2018-09-13T14:34:18.017Z,4.58
2018-09-13T14:36:46.558Z,5.35
2018-09-13T14:39:15.041Z,5.37
2018-09-13T14:41:43.563Z,4.30
2018-09-13T14:44:12.045Z,4.17
2018-09-13T14:46:41.367Z,5.80
2018-09-13T14:49:09.874Z,3.85
2018-09-13T14:51:38.393Z,4.37
2018-09-13T14:54:06.902Z,4.42
2018-09-13T14:56:35.750Z,4.20
2018-09-13T14:59:04.273Z,4.10
2018-09-13T15:01:32.811Z,4.03
2018-09-13T15:04:01.347Z,4.10
2018-09-13T15:06:29.935Z,4.47
2018-09-13T15:08:58.490Z,4.22
2018-09-13T15:11:26.966Z,4.20
2018-09-13T15:13:55.497Z,5.05
2018-09-13T15:16:23.993Z,4.00
2018-09-13T15:18:52.604Z,4.87
2018-09-13T15:21:21.102Z,4.87
2018-09-13T15:23:54.533Z,3.92
2018-09-13T15:26:23.734Z,4.05
2018-09-13T15:28:52.310Z,4.10
2018-09-13T15:31:20.868Z,5.58
2018-09-13T15:33:50.349Z,5.47
2018-09-13T15:36:20.096Z,5.08
2018-09-13T15:38:48.776Z,3.92
2018-09-13T15:41:17.278Z,5.28
2018-09-13T15:43:46.126Z,5.00
2018-09-13T15:46:17.404Z,7.75
2018-09-13T15:48:45.916Z,5.47
2018-09-13T15:51:23.716Z,6.33
2018-09-13T15:53:52.337Z,5.70
2018-09-13T15:56:20.925Z,6.85
2018-09-13T15:58:50.030Z,5.90
2018-09-13T16:01:18.959Z,5.22
2018-09-13T16:06:40.650Z,4.17
2018-09-13T16:09:10.452Z,6.03
2018-09-13T16:11:41.356Z,13.95
2018-09-13T16:14:09.927Z,15.25
2018-09-13T16:16:38.544Z,13.93
2018-09-13T16:19:07.103Z,7.92
2018-09-13T16:21:35.640Z,4.92
2018-09-13T16:24:04.448Z,8.48
2018-09-13T16:26:33.135Z,6.53
2018-09-13T16:29:02.044Z,4.97
2018-09-13T16:31:30.594Z,5.67
2018-09-13T16:33:59.151Z,5.87
2018-09-13T16:36:30.032Z,5.97
2018-09-13T16:39:06.404Z,5.75
2018-09-13T16:41:41.589Z,6.15
2018-09-13T16:44:14.345Z,6.17
2018-09-13T16:46:48.510Z,7.50
2018-09-13T16:49:17.325Z,6.83
2018-09-13T16:54:39.545Z,6.60
2018-09-13T17:00:00.672Z,11.63
2018-09-13T17:02:29.166Z,8.53
2018-09-13T17:04:58.126Z,8.33
2018-09-13T17:07:27.075Z,5.53
2018-09-13T17:09:55.648Z,5.87
2018-09-13T17:12:24.222Z,6.60
2018-09-13T17:14:52.864Z,6.33
2018-09-13T17:17:21.422Z,6.60
2018-09-13T17:19:49.978Z,6.17
2018-09-13T17:28:03.742Z,5.97
2018-09-13T17:30:32.285Z,5.97
2018-09-13T17:33:00.796Z,5.97
2018-09-13T17:35:29.935Z,6.17
2018-09-13T17:37:58.518Z,5.77
2018-09-13T17:40:27.186Z,5.53
2018-09-13T17:42:55.702Z,6.40
2018-09-13T17:45:24.188Z,7.67
